createdAt,value
2018-09-04T00:00:29.728Z,36.6
2018-09-04T00:01:20.651Z,36.6
2018-09-04T00:02:09.845Z,36.6
2018-09-04T00:03:00.272Z,36.6
2018-09-04T00:03:50.356Z,36.6
2018-09-04T00:04:41.153Z,36.6
2018-09-04T00:05:30.999Z,36.6
2018-09-04T00:06:20.796Z,36.6
2018-09-04T00:07:10.835Z,36.6
2018-09-04T00:08:00.880Z,36.6
2018-09-04T00:08:51.462Z,36.5
2018-09-04T00:09:41.058Z,36.5
2018-09-04T00:10:31.443Z,36.5
2018-09-04T00:11:21.148Z,36.5
2018-09-04T00:12:11.503Z,36.5
2018-09-04T00:31:42.681Z,36.4
2018-09-04T00:32:33.131Z,36.4
2018-09-04T00:33:22.539Z,36.4
2018-09-04T00:34:13.277Z,36.4
2018-09-04T00:35:03.269Z,36.4
2018-09-04T00:35:53.004Z,36.4
2018-09-04T00:36:42.841Z,36.4
2018-09-04T00:37:32.581Z,36.4
2018-09-04T00:38:23.478Z,36.3
2018-09-04T00:39:13.838Z,36.3
2018-09-04T00:40:03.340Z,36.3
2018-09-04T00:40:53.678Z,36.3
2018-09-04T00:41:44.281Z,36.4
2018-09-04T00:42:33.863Z,36.3
2018-09-04T00:43:24.144Z,36.3
2018-09-04T00:44:13.031Z,36.3
2018-09-04T00:45:04.024Z,36.3
2018-09-04T00:45:53.773Z,36.3
2018-09-04T00:46:43.926Z,36.3
2018-09-04T00:47:34.203Z,36.3
2018-09-04T00:48:23.664Z,36.3
2018-09-04T00:49:13.778Z,36.3
2018-09-04T00:50:03.848Z,36.3
2018-09-04T00:50:53.575Z,36.3
2018-09-04T00:51:44.467Z,36.3
2018-09-04T00:52:33.806Z,36.3
2018-09-04T00:53:24.100Z,36.3
2018-09-04T00:54:14.413Z,36.3
2018-09-04T00:55:04.301Z,36.3
2018-09-04T00:55:54.348Z,36.3
2018-09-04T00:56:44.188Z,36.3
2018-09-04T00:57:34.940Z,36.3
2018-09-04T00:58:24.784Z,36.3
2018-09-04T00:59:14.545Z,36.3
2018-09-04T01:00:05.292Z,36.3
2018-09-04T01:00:55.237Z,36.3
2018-09-04T01:01:45.304Z,36.3
2018-09-04T01:02:35.067Z,36.3
2018-09-04T01:03:25.429Z,36.2
2018-09-04T01:04:14.896Z,36.3
2018-09-04T01:05:05.547Z,36.2
2018-09-04T01:05:55.330Z,36.2
2018-09-04T01:06:45.679Z,36.2
2018-09-04T01:07:36.417Z,36.2
2018-09-04T01:08:25.237Z,36.2
2018-09-04T01:09:15.351Z,36.2
2018-09-04T01:10:06.193Z,36.2
2018-09-04T01:10:55.705Z,36.1
2018-09-04T01:11:46.096Z,36.2
2018-09-04T01:12:35.769Z,36.1
2018-09-04T01:13:25.951Z,36.1
2018-09-04T01:14:16.567Z,36.1
2018-09-04T01:15:06.331Z,36.1
2018-09-04T01:15:55.526Z,36.1
2018-09-04T01:16:46.155Z,36.1
2018-09-04T01:17:36.837Z,36.1
2018-09-04T01:18:26.856Z,36.1
2018-09-04T01:19:16.446Z,36.1
2018-09-04T01:20:07.036Z,36.1
2018-09-04T01:20:56.466Z,36.1
2018-09-04T01:21:47.138Z,36.1
2018-09-04T01:22:37.739Z,36.1
2018-09-04T01:23:26.762Z,36.1
2018-09-04T01:24:17.041Z,36.1
2018-09-04T01:25:07.356Z,36.1
2018-09-04T01:25:56.571Z,36.1
2018-09-04T01:26:46.640Z,36.1
2018-09-04T01:27:37.268Z,36.1
2018-09-04T01:28:27.398Z,36.1
2018-09-04T01:29:17.723Z,36.1
2018-09-04T01:30:08.048Z,36.1
2018-09-04T01:30:57.272Z,36.1
2018-09-04T01:31:47.359Z,36.1
2018-09-04T01:32:37.473Z,36.1
2018-09-04T01:33:28.300Z,36
2018-09-04T01:34:17.810Z,36
2018-09-04T01:35:07.868Z,36
2018-09-04T01:35:57.930Z,36
2018-09-04T01:36:47.432Z,36
2018-09-04T01:37:38.075Z,36
2018-09-04T01:38:27.843Z,36
2018-09-04T01:39:18.135Z,36
2018-09-04T01:40:08.585Z,36
2018-09-04T01:40:57.777Z,35.9
2018-09-04T01:41:48.117Z,36
2018-09-04T01:42:38.530Z,36
2018-09-04T01:43:27.972Z,35.9
2018-09-04T01:44:18.065Z,35.9
2018-09-04T01:45:08.357Z,35.9
2018-09-04T01:45:58.702Z,35.9
2018-09-04T01:46:49.038Z,35.9
2018-09-04T01:47:38.261Z,35.9
2018-09-04T01:48:29.170Z,35.9
2018-09-04T01:49:18.661Z,35.9
2018-09-04T01:50:09.049Z,35.9
2018-09-04T01:50:59.341Z,35.9
2018-09-04T01:51:49.167Z,35.9
2018-09-04T01:52:39.511Z,35.9
2018-09-04T01:53:29.571Z,35.9
2018-09-04T01:54:19.594Z,35.9
2018-09-04T01:55:09.144Z,35.9
2018-09-04T01:55:59.181Z,35.9
2018-09-04T01:56:49.558Z,35.9
2018-09-04T01:57:38.745Z,35.9
2018-09-04T01:58:30.254Z,35.9
2018-09-04T01:59:19.160Z,35.9
2018-09-04T02:00:08.668Z,35.9
2018-09-04T02:00:59.548Z,35.9
2018-09-04T02:01:49.359Z,35.9
2018-09-04T02:02:39.996Z,35.9
2018-09-04T02:03:29.833Z,35.9
2018-09-04T02:04:19.541Z,35.9
2018-09-04T02:05:10.481Z,35.9
2018-09-04T02:06:00.551Z,35.9
2018-09-04T02:06:50.325Z,35.9
2018-09-04T02:07:40.099Z,35.9
2018-09-04T02:08:29.828Z,35.9
2018-09-04T02:09:20.488Z,35.9
2018-09-04T02:10:10.590Z,35.8
2018-09-04T02:11:00.940Z,35.8
2018-09-04T02:11:50.965Z,35.8
2018-09-04T02:12:40.469Z,35.8
2018-09-04T02:13:30.793Z,35.8
2018-09-04T02:14:20.962Z,35.8
2018-09-04T02:15:10.642Z,35.8
2018-09-04T02:16:01.047Z,35.8
2018-09-04T02:16:51.655Z,35.8
2018-09-04T02:17:40.865Z,35.8
2018-09-04T02:18:30.888Z,35.8
2018-09-04T02:19:21.292Z,35.8
2018-09-04T02:20:11.326Z,35.8
2018-09-04T02:21:01.176Z,35.8
2018-09-04T02:21:50.889Z,35.8
2018-09-04T02:22:40.979Z,35.8
2018-09-04T02:23:31.305Z,35.8
2018-09-04T02:24:21.092Z,35.8
2018-09-04T02:25:11.777Z,35.8
2018-09-04T02:26:01.829Z,35.8
2018-09-04T02:26:51.281Z,35.8
2018-09-04T02:27:41.946Z,35.8
2018-09-04T02:28:31.994Z,35.8
2018-09-04T02:29:22.322Z,35.7
2018-09-04T02:30:11.869Z,35.8
2018-09-04T02:31:01.623Z,35.7
2018-09-04T02:31:51.988Z,35.7
2018-09-04T02:32:41.769Z,35.8
2018-09-04T02:33:32.407Z,35.7
2018-09-04T02:34:22.102Z,35.7
2018-09-04T02:35:12.274Z,35.7
2018-09-04T02:36:02.328Z,35.7
2018-09-04T02:36:52.717Z,35.7
2018-09-04T02:37:41.873Z,35.7
2018-09-04T02:38:32.794Z,35.7
2018-09-04T02:39:22.817Z,35.7
2018-09-04T02:40:12.621Z,35.7
2018-09-04T02:41:02.983Z,35.7
2018-09-04T02:41:53.047Z,35.7
2018-09-04T02:42:42.518Z,35.7
2018-09-04T02:43:33.163Z,35.7
2018-09-04T02:44:23.481Z,35.7
2018-09-04T02:45:13.295Z,35.7
2018-09-04T02:46:03.059Z,35.7
2018-09-04T02:46:53.415Z,35.7
2018-09-04T02:47:43.198Z,35.7
2018-09-04T02:48:33.861Z,35.6
2018-09-04T02:49:23.603Z,35.6
2018-09-04T02:50:13.583Z,35.6
2018-09-04T02:51:03.708Z,35.6
2018-09-04T02:51:53.786Z,35.6
2018-09-04T02:52:44.422Z,35.6
2018-09-04T02:53:33.360Z,35.6
2018-09-04T02:54:23.478Z,35.6
2018-09-04T02:55:14.260Z,35.6
2018-09-04T02:56:04.113Z,35.6
2018-09-04T02:56:54.177Z,35.6
2018-09-04T02:57:43.972Z,35.6
2018-09-04T02:58:33.730Z,35.6
2018-09-04T02:59:24.388Z,35.6
2018-09-04T03:00:14.921Z,35.6
2018-09-04T03:01:04.812Z,35.6
2018-09-04T03:01:54.325Z,35.6
2018-09-04T03:02:44.367Z,35.6
2018-09-04T03:03:34.714Z,35.6
2018-09-04T03:04:25.098Z,35.6
2018-09-04T03:05:15.277Z,35.6
2018-09-04T03:06:04.617Z,35.6
2018-09-04T03:06:54.949Z,35.6
2018-09-04T03:07:45.019Z,35.6
2018-09-04T03:08:34.793Z,35.6
2018-09-04T03:09:24.562Z,35.6
2018-09-04T03:10:14.604Z,35.5
2018-09-04T03:11:05.544Z,35.6
2018-09-04T03:11:55.689Z,35.6
2018-09-04T03:12:45.134Z,35.5
2018-09-04T03:13:37.156Z,35.5
2018-09-04T03:14:25.271Z,35.5
2018-09-04T03:15:15.049Z,35.5
2018-09-04T03:16:05.094Z,35.5
2018-09-04T03:16:55.164Z,35.5
2018-09-04T03:17:45.798Z,35.5
2018-09-04T03:18:35.808Z,35.5
2018-09-04T03:19:25.639Z,35.5
2018-09-04T03:20:16.253Z,35.4
2018-09-04T03:21:05.753Z,35.4
2018-09-04T03:21:55.636Z,35.5
2018-09-04T03:22:46.205Z,35.5
2018-09-04T03:23:35.959Z,35.5
2018-09-04T03:24:26.649Z,35.4
2018-09-04T03:25:17.013Z,35.5
2018-09-04T03:26:06.220Z,35.4
2018-09-04T03:26:56.497Z,35.4
2018-09-04T03:27:46.323Z,35.4
2018-09-04T03:28:36.596Z,35.4
2018-09-04T03:29:26.443Z,35.4
2018-09-04T03:30:17.086Z,35.4
2018-09-04T03:31:07.470Z,35.4
2018-09-04T03:31:56.648Z,35.4
2018-09-04T03:32:46.390Z,35.4
2018-09-04T03:33:36.447Z,35.4
2018-09-04T03:34:27.642Z,35.4
2018-09-04T03:35:17.390Z,35.4
2018-09-04T03:36:06.820Z,35.4
2018-09-04T03:36:57.256Z,35.4
2018-09-04T03:37:47.037Z,35.4
2018-09-04T03:38:37.652Z,35.4
2018-09-04T03:39:26.922Z,35.4
2018-09-04T03:40:17.525Z,35.4
2018-09-04T03:41:07.527Z,35.4
2018-09-04T03:41:57.471Z,35.4
2018-09-04T03:42:47.769Z,35.4
2018-09-04T03:43:37.794Z,35.4
2018-09-04T03:44:27.318Z,35.4
2018-09-04T03:45:17.959Z,35.3
2018-09-04T03:46:07.482Z,35.4
2018-09-04T03:46:58.460Z,35.4
2018-09-04T03:47:47.541Z,35.4
2018-09-04T03:48:38.471Z,35.4
2018-09-04T03:49:27.888Z,35.4
2018-09-04T03:50:17.990Z,35.4
2018-09-04T03:51:07.529Z,35.4
2018-09-04T03:51:58.425Z,35.3
2018-09-04T03:52:48.488Z,35.3
2018-09-04T03:53:38.265Z,35.3
2018-09-04T03:54:28.641Z,35.3
2018-09-04T03:55:18.396Z,35.3
2018-09-04T03:56:09.333Z,35.3
2018-09-04T03:56:59.065Z,35.3
2018-09-04T03:57:48.902Z,35.3
2018-09-04T03:58:38.977Z,35.3
2018-09-04T03:59:29.326Z,35.3
2018-09-04T04:00:18.176Z,35.3
2018-09-04T04:01:08.956Z,35.3
2018-09-04T04:01:58.956Z,35.3
2018-09-04T04:02:48.683Z,35.3
2018-09-04T04:03:38.778Z,35.3
2018-09-04T04:04:29.716Z,35.3
2018-09-04T04:05:19.453Z,35.3
2018-09-04T04:06:09.423Z,35.3
2018-09-04T04:06:59.568Z,35.3
2018-09-04T04:07:49.393Z,35.3
2018-09-04T04:08:39.413Z,35.3
2018-09-04T04:09:29.803Z,35.3
2018-09-04T04:10:19.293Z,35.3
2018-09-04T04:11:10.197Z,35.3
2018-09-04T04:12:00.743Z,35.2
2018-09-04T04:12:49.762Z,35.3
2018-09-04T04:13:39.822Z,35.2
2018-09-04T04:14:30.202Z,35.2
2018-09-04T04:15:19.928Z,35.2
2018-09-04T04:16:10.798Z,35.2
2018-09-04T04:16:59.725Z,35.2
2018-09-04T04:17:49.825Z,35.2
2018-09-04T04:18:40.769Z,35.2
2018-09-04T04:19:30.837Z,35.2
2018-09-04T04:20:21.169Z,35.2
2018-09-04T04:21:10.665Z,35.2
2018-09-04T04:22:00.731Z,35.2
2018-09-04T04:22:51.095Z,35.2
2018-09-04T04:23:40.635Z,35.2
2018-09-04T04:24:30.941Z,35.1
2018-09-04T04:25:20.427Z,35.2
2018-09-04T04:26:11.103Z,35.2
2018-09-04T04:27:01.367Z,35.2
2018-09-04T04:27:51.202Z,35.2
2018-09-04T04:28:41.259Z,35.2
2018-09-04T04:29:30.711Z,35.2
2018-09-04T04:30:21.662Z,35.2
2018-09-04T04:31:11.681Z,35.2
2018-09-04T04:32:01.566Z,35.1
2018-09-04T04:32:50.919Z,35.2
2018-09-04T04:33:41.949Z,35.1
2018-09-04T04:34:31.421Z,35.1
2018-09-04T04:35:22.024Z,35.1
2018-09-04T04:36:12.113Z,35.1
2018-09-04T04:37:01.332Z,35.1
2018-09-04T04:37:51.943Z,35.1
2018-09-04T04:38:42.046Z,35.1
2018-09-04T04:39:31.816Z,35.1
2018-09-04T04:40:21.589Z,35.1
2018-09-04T04:41:12.568Z,35.1
2018-09-04T04:42:02.032Z,35.1
2018-09-04T04:42:51.758Z,35.1
2018-09-04T05:00:32.173Z,35
2018-09-04T05:01:20.581Z,35
2018-09-04T05:02:10.949Z,35.1
2018-09-04T05:03:01.543Z,35
2018-09-04T05:03:50.805Z,35
2018-09-04T05:04:41.140Z,35
2018-09-04T05:05:31.845Z,35
2018-09-04T05:06:21.556Z,35
2018-09-04T05:07:11.041Z,35
2018-09-04T05:08:01.393Z,35
2018-09-04T05:08:51.421Z,35
2018-09-04T05:09:41.523Z,35
2018-09-04T05:10:31.282Z,35
2018-09-04T05:11:23.123Z,34.9
2018-09-04T05:12:11.991Z,34.9
2018-09-04T05:13:01.789Z,34.9
2018-09-04T05:13:51.597Z,34.9
2018-09-04T05:14:41.908Z,34.9
2018-09-04T05:15:31.978Z,34.9
2018-09-04T05:16:22.068Z,34.9
2018-09-04T05:17:11.526Z,34.9
2018-09-04T05:18:02.192Z,34.9
2018-09-04T05:18:52.008Z,34.9
2018-09-04T05:19:42.103Z,34.9
2018-09-04T05:20:32.066Z,34.9
2018-09-04T05:21:22.123Z,34.9
2018-09-04T05:22:12.286Z,34.9
2018-09-04T05:23:02.555Z,34.9
2018-09-04T05:23:52.093Z,34.9
2018-09-04T05:24:42.397Z,34.9
2018-09-04T05:25:33.015Z,34.9
2018-09-04T05:26:23.075Z,34.9
2018-09-04T05:27:12.345Z,34.9
2018-09-04T05:28:01.844Z,34.9
2018-09-04T05:28:53.807Z,34.9
2018-09-04T05:29:43.360Z,34.9
2018-09-04T05:30:33.143Z,34.9
2018-09-04T05:31:22.924Z,34.9
2018-09-04T05:32:12.810Z,34.9
2018-09-04T05:33:02.244Z,34.9
2018-09-04T05:33:53.452Z,34.9
2018-09-04T05:34:43.150Z,34.9
2018-09-04T05:35:33.505Z,34.8
2018-09-04T05:36:23.817Z,34.8
2018-09-04T05:37:13.097Z,34.8
2018-09-04T05:38:03.702Z,34.8
2018-09-04T05:38:54.302Z,34.8
2018-09-04T05:39:43.527Z,34.8
2018-09-04T05:40:33.652Z,34.8
2018-09-04T05:41:22.820Z,34.8
2018-09-04T05:42:14.011Z,34.8
2018-09-04T05:43:04.405Z,34.8
2018-09-04T05:43:54.709Z,34.8
2018-09-04T05:44:44.015Z,34.8
2018-09-04T05:45:34.643Z,34.8
2018-09-04T05:46:24.360Z,34.8
2018-09-04T05:47:13.827Z,34.8
2018-09-04T05:48:03.892Z,34.8
2018-09-04T05:48:54.308Z,34.8
2018-09-04T05:49:44.552Z,34.8
2018-09-04T05:50:34.652Z,34.8
2018-09-04T05:51:23.597Z,34.8
2018-09-04T05:52:14.082Z,34.8
2018-09-04T05:53:05.141Z,34.8
2018-09-04T05:53:54.909Z,34.8
2018-09-04T05:54:44.967Z,34.8
2018-09-04T05:55:35.025Z,34.8
2018-09-04T05:56:25.103Z,34.8
2018-09-04T05:57:14.881Z,34.8
2018-09-04T05:58:04.775Z,34.8
2018-09-04T05:58:54.748Z,34.8
2018-09-04T05:59:45.373Z,34.8
2018-09-04T06:00:35.456Z,34.8
2018-09-04T06:01:25.784Z,34.8
2018-09-04T06:02:15.861Z,34.8
2018-09-04T06:03:05.615Z,34.8
2018-09-04T06:03:55.991Z,34.8
2018-09-04T06:04:45.749Z,34.8
2018-09-04T06:05:35.821Z,34.7
2018-09-04T06:06:25.582Z,34.8
2018-09-04T06:07:15.679Z,34.8
2018-09-04T06:08:06.310Z,34.8
2018-09-04T06:08:55.511Z,34.8
2018-09-04T06:09:45.876Z,34.8
2018-09-04T06:10:36.181Z,34.7
2018-09-04T06:11:26.548Z,34.7
2018-09-04T06:12:16.288Z,34.8
2018-09-04T06:13:06.693Z,34.7
2018-09-04T06:13:56.289Z,34.8
2018-09-04T06:14:47.038Z,34.7
2018-09-04T06:15:36.315Z,34.7
2018-09-04T06:16:25.589Z,34.7
2018-09-04T06:17:16.712Z,34.7
2018-09-04T06:18:06.473Z,34.7
2018-09-04T06:18:56.315Z,34.7
2018-09-04T06:19:46.904Z,34.7
2018-09-04T06:20:37.021Z,34.7
2018-09-04T06:21:27.026Z,34.7
2018-09-04T06:22:16.803Z,34.7
2018-09-04T06:23:07.458Z,34.7
2018-09-04T06:23:56.946Z,34.7
2018-09-04T06:24:47.574Z,34.7
2018-09-04T06:25:37.688Z,34.6
2018-09-04T06:26:27.726Z,34.7
2018-09-04T06:27:16.931Z,34.6
2018-09-04T06:28:07.815Z,34.7
2018-09-04T06:28:57.373Z,34.6
2018-09-04T06:29:47.506Z,34.6
2018-09-04T06:30:37.543Z,34.6
2018-09-04T06:31:28.363Z,34.6
2018-09-04T06:32:17.878Z,34.6
2018-09-04T06:33:08.607Z,34.7
2018-09-04T06:33:57.947Z,34.6
2018-09-04T06:34:47.207Z,34.6
2018-09-04T06:35:38.780Z,34.6
2018-09-04T06:36:28.930Z,34.6
2018-09-04T06:37:18.532Z,34.6
2018-09-04T06:38:08.620Z,34.6
2018-09-04T06:38:58.435Z,34.6
2018-09-04T06:39:48.181Z,34.6
2018-09-04T06:40:37.876Z,34.6
2018-09-04T06:41:28.619Z,34.6
2018-09-04T06:42:18.914Z,34.6
2018-09-04T06:43:08.411Z,34.6
2018-09-04T06:43:57.498Z,34.6
2018-09-04T06:44:48.335Z,34.6
2018-09-04T06:45:38.736Z,34.6
2018-09-04T06:46:29.336Z,34.6
2018-09-04T06:47:18.568Z,34.6
2018-09-04T06:48:08.903Z,34.6
2018-09-04T06:48:58.438Z,34.6
2018-09-04T06:49:48.753Z,34.6
2018-09-04T06:50:39.065Z,34.6
2018-09-04T06:51:29.623Z,34.6
2018-09-04T06:52:18.623Z,34.6
2018-09-04T06:53:09.508Z,34.6
2018-09-04T06:53:59.240Z,34.6
2018-09-04T06:54:49.503Z,34.6
2018-09-04T06:55:39.666Z,34.5
2018-09-04T06:56:29.489Z,34.5
2018-09-04T06:57:20.095Z,34.5
2018-09-04T06:58:09.285Z,34.5
2018-09-04T06:58:59.933Z,34.6
2018-09-04T06:59:50.260Z,34.5
2018-09-04T07:00:40.040Z,34.5
2018-09-04T07:01:29.560Z,34.5
2018-09-04T07:02:19.107Z,34.5
2018-09-04T07:03:10.242Z,34.5
2018-09-04T07:04:00.350Z,34.5
2018-09-04T07:04:50.424Z,34.5
2018-09-04T07:05:39.942Z,34.5
2018-09-04T07:06:29.749Z,34.5
2018-09-04T07:07:20.044Z,34.5
2018-09-04T07:08:10.142Z,34.5
2018-09-04T07:09:00.513Z,34.5
2018-09-04T07:09:50.617Z,34.5
2018-09-04T07:10:40.344Z,34.4
2018-09-04T07:11:30.659Z,34.4
2018-09-04T07:12:20.466Z,34.5
2018-09-04T07:13:10.854Z,34.4
2018-09-04T07:14:01.371Z,34.4
2018-09-04T07:14:51.430Z,34.4
2018-09-04T07:15:41.277Z,34.4
2018-09-04T07:16:31.533Z,34.5
2018-09-04T07:17:21.648Z,34.4
2018-09-04T07:18:11.419Z,34.5
2018-09-04T07:19:01.816Z,34.5
2018-09-04T07:19:51.598Z,34.4
2018-09-04T07:20:41.590Z,34.4
2018-09-04T07:21:31.673Z,34.4
2018-09-04T07:22:22.019Z,34.4
2018-09-04T07:23:11.801Z,34.4
2018-09-04T07:24:02.755Z,34.4
2018-09-04T07:24:52.279Z,34.4
2018-09-04T07:25:41.992Z,34.4
2018-09-04T07:26:32.583Z,34.4
2018-09-04T07:27:21.621Z,34.4
2018-09-04T07:28:12.030Z,34.4
2018-09-04T07:29:01.418Z,34.4
2018-09-04T07:29:52.583Z,34.4
2018-09-04T07:30:41.793Z,34.4
2018-09-04T07:31:32.493Z,34.4
2018-09-04T07:32:22.502Z,34.4
2018-09-04T07:33:12.838Z,34.4
2018-09-04T07:34:02.640Z,34.4
2018-09-04T07:34:52.678Z,34.4
2018-09-04T07:35:42.465Z,34.4
2018-09-04T07:36:33.528Z,34.4
2018-09-04T07:37:22.582Z,34.4
2018-09-04T07:38:13.240Z,34.4
2018-09-04T07:39:03.292Z,34.4
2018-09-04T07:39:53.380Z,34.3
2018-09-04T07:40:43.475Z,34.4
2018-09-04T07:41:33.897Z,34.4
2018-09-04T07:42:22.991Z,34.4
2018-09-04T07:43:13.362Z,34.4
2018-09-04T07:44:02.601Z,34.4
2018-09-04T07:44:52.852Z,34.4
2018-09-04T07:45:43.517Z,34.3
2018-09-04T07:46:33.624Z,34.4
2018-09-04T07:47:23.381Z,34.3
2018-09-04T07:48:14.056Z,34.3
2018-09-04T07:49:03.539Z,34.3
2018-09-04T07:49:54.188Z,34.3
2018-09-04T07:50:43.895Z,34.3
2018-09-04T07:51:33.949Z,34.8
2018-09-04T07:52:24.346Z,40.7
2018-09-04T07:53:14.112Z,40.1
2018-09-04T07:54:04.128Z,43.1
2018-09-04T07:54:54.204Z,44.9
2018-09-04T07:55:44.816Z,44.8
2018-09-04T07:56:34.651Z,43.9
2018-09-04T07:57:24.161Z,42.8
2018-09-04T07:58:14.785Z,42.1
2018-09-04T07:59:04.854Z,41.6
2018-09-04T07:59:54.313Z,41.3
2018-09-04T08:00:43.806Z,40.9
2018-09-04T08:01:35.021Z,40.7
2018-09-04T08:02:24.528Z,40.4
2018-09-04T08:03:14.083Z,40.1
2018-09-04T08:04:04.445Z,39.9
2018-09-04T08:04:53.926Z,39.7
2018-09-04T08:05:43.688Z,39.5
2018-09-04T08:06:34.932Z,40.5
2018-09-04T08:07:25.252Z,43.2
2018-09-04T08:08:14.465Z,43.9
2018-09-04T08:09:03.978Z,46.9
2018-09-04T08:09:54.431Z,48.1
2018-09-04T08:10:44.978Z,48.3
2018-09-04T08:11:35.513Z,48.2
2018-09-04T08:12:26.115Z,48.1
2018-09-04T08:13:15.942Z,48
2018-09-04T08:14:05.997Z,48.2
2018-09-04T08:14:55.233Z,48.3
2018-09-04T08:15:45.848Z,48.3
2018-09-04T08:16:36.225Z,48.2
2018-09-04T08:17:25.915Z,48.1
2018-09-04T08:18:15.718Z,48.1
2018-09-04T08:19:06.119Z,48.3
2018-09-04T08:19:56.130Z,48.8
2018-09-04T08:20:47.231Z,49.2
2018-09-04T08:21:36.609Z,49.5
2018-09-04T08:22:26.080Z,49.7
2018-09-04T09:15:00.999Z,58.4
2018-09-04T09:15:51.433Z,58.5
2018-09-04T09:17:30.767Z,58.7
2018-09-04T09:18:22.117Z,58.8
2018-09-04T09:19:11.681Z,58.8
2018-09-04T09:20:01.199Z,58.9
2018-09-04T09:20:51.470Z,59
2018-09-04T09:21:41.563Z,59.1
2018-09-04T09:22:31.581Z,59.1
2018-09-04T09:23:22.489Z,59.3
2018-09-04T09:24:11.723Z,59.3
2018-09-04T09:25:02.324Z,59.4
2018-09-04T09:25:52.626Z,59.5
2018-09-04T09:26:42.433Z,59.6
2018-09-04T09:27:31.731Z,59.7
2018-09-04T09:28:22.040Z,59.8
2018-09-04T09:29:11.776Z,59.8
2018-09-04T09:30:02.487Z,59.9
2018-09-04T09:30:52.523Z,59.9
2018-09-04T09:31:42.608Z,60.1
2018-09-04T09:32:32.135Z,60.1
2018-09-04T09:33:22.430Z,60.1
2018-09-04T09:34:13.020Z,60.2
2018-09-04T09:35:02.937Z,60.3
2018-09-04T09:35:52.377Z,60.4
2018-09-04T09:36:44.119Z,60.4
2018-09-04T09:37:33.065Z,60.6
2018-09-04T09:38:22.816Z,60.6
2018-09-04T09:39:12.855Z,60.7
2018-09-04T09:40:03.003Z,60.8
2018-09-04T09:40:51.880Z,60.9
2018-09-04T09:41:42.776Z,60.9
2018-09-04T09:42:33.378Z,61
2018-09-04T09:43:23.480Z,61.1
2018-09-04T09:44:13.097Z,61.1
2018-09-04T09:45:03.900Z,61.2
2018-09-04T09:45:53.455Z,61.3
2018-09-04T09:46:42.926Z,61.4
2018-09-04T09:47:34.106Z,61.4
2018-09-04T09:48:23.605Z,61.6
2018-09-04T09:49:13.992Z,61.6
2018-09-04T09:50:03.280Z,61.7
2018-09-04T09:50:54.812Z,61.8
2018-09-04T09:51:43.869Z,61.8
2018-09-04T09:52:34.853Z,61.9
2018-09-04T09:53:27.663Z,61.9
2018-09-04T09:54:14.367Z,61.9
2018-09-04T09:55:04.431Z,62.1
2018-09-04T09:55:54.591Z,62.2
2018-09-04T09:56:44.445Z,62.3
2018-09-04T09:57:34.104Z,62.3
2018-09-04T09:58:23.420Z,62.4
2018-09-04T09:59:14.734Z,62.5
2018-09-04T10:00:05.725Z,62.6
2018-09-04T10:00:55.425Z,62.7
2018-09-04T10:01:44.835Z,62.8
2018-09-04T10:02:34.888Z,62.8
2018-09-04T10:03:25.122Z,62.8
2018-09-04T10:04:16.108Z,62.9
2018-09-04T10:05:05.199Z,63
2018-09-04T10:05:54.902Z,63
2018-09-04T10:06:45.351Z,63.1
2018-09-04T10:07:35.996Z,63.2
2018-09-04T10:08:25.523Z,63.3
2018-09-04T10:09:15.015Z,63.3
2018-09-04T10:10:05.928Z,63.4
2018-09-04T10:10:54.826Z,63.4
2018-09-04T10:11:45.376Z,63.6
2018-09-04T10:12:35.414Z,63.6
2018-09-04T10:13:25.737Z,63.7
2018-09-04T10:14:15.816Z,63.8
2018-09-04T10:15:21.356Z,63.8
2018-09-04T10:15:55.401Z,63.9
2018-09-04T10:16:45.991Z,63.9
2018-09-04T10:17:36.113Z,64
2018-09-04T10:18:25.855Z,64.1
2018-09-04T10:19:15.676Z,64.1
2018-09-04T10:20:06.106Z,64.3
2018-09-04T10:20:56.601Z,64.3
2018-09-04T10:21:46.156Z,64.4
2018-09-04T10:22:36.195Z,64.4
2018-09-04T10:23:26.066Z,64.5
2018-09-04T10:24:16.117Z,64.6
2018-09-04T10:25:06.209Z,64.6
2018-09-04T10:25:57.064Z,64.8
2018-09-04T10:26:47.063Z,64.8
2018-09-04T10:27:37.117Z,64.9
2018-09-04T10:28:26.992Z,64.9
2018-09-04T10:29:31.367Z,64.9
2018-09-04T10:30:06.822Z,65.1
2018-09-04T10:30:56.555Z,65.1
2018-09-04T10:31:46.569Z,65.1
2018-09-04T10:32:36.946Z,65.3
2018-09-04T10:33:26.538Z,65.3
2018-09-04T10:34:16.826Z,65.4
2018-09-04T10:35:06.894Z,65.4
2018-09-04T10:35:57.173Z,65.4
2018-09-04T10:36:47.555Z,65.4
2018-09-04T10:38:29.249Z,65.6
2018-09-04T16:15:53.036Z,46.9
2018-09-04T16:16:43.063Z,46.9
2018-09-04T16:17:33.146Z,46.9
2018-09-04T16:18:23.259Z,46.9
2018-09-04T16:19:13.666Z,46.8
2018-09-04T16:20:04.514Z,46.8
2018-09-04T16:20:55.587Z,46.8
2018-09-04T16:21:45.069Z,46.8
2018-09-04T16:22:34.308Z,46.7
2018-09-04T16:23:24.116Z,46.6
2018-09-04T16:24:14.361Z,46.6
2018-09-04T16:25:05.070Z,46.6
2018-09-04T16:25:54.054Z,46.6
2018-09-04T16:27:36.214Z,46.5
2018-09-04T16:28:24.950Z,46.4
2018-09-04T16:29:16.089Z,46.4
2018-09-04T16:30:20.721Z,46.4
2018-09-04T16:30:56.020Z,46.4
2018-09-04T16:31:45.241Z,46.4
2018-09-04T16:32:35.839Z,46.3
2018-09-04T16:33:25.413Z,46.3
2018-09-04T16:34:16.843Z,46.3
2018-09-04T16:35:07.172Z,46.3
2018-09-04T16:35:55.799Z,46.2
2018-09-04T16:37:00.652Z,46.2
2018-09-04T16:37:37.351Z,46.1
2018-09-04T16:38:26.099Z,46.1
2018-09-04T16:39:15.459Z,46.1
2018-09-04T16:40:05.764Z,46.1
2018-09-04T16:40:56.859Z,46
2018-09-04T16:41:45.722Z,46
2018-09-04T16:42:37.033Z,45.9
2018-09-04T16:43:25.949Z,45.9
2018-09-04T16:44:30.598Z,45.9
2018-09-04T16:45:06.360Z,45.9
2018-09-04T16:45:55.937Z,45.8
2018-09-04T16:46:46.816Z,45.8
2018-09-04T16:47:36.323Z,45.8
2018-09-04T16:49:30.966Z,45.7
2018-09-04T16:50:06.759Z,45.7
2018-09-04T16:51:47.648Z,45.6
2018-09-04T16:52:37.451Z,45.6
2018-09-04T16:53:26.978Z,45.6
2018-09-04T16:54:17.596Z,45.6
2018-09-04T16:55:07.623Z,45.5
2018-09-04T16:55:56.400Z,45.5
2018-09-04T16:56:47.043Z,45.5
2018-09-04T16:57:37.912Z,45.4
2018-09-04T16:58:27.913Z,45.4
2018-09-04T16:59:16.647Z,45.4
2018-09-04T17:00:07.508Z,45.4
2018-09-04T17:00:57.083Z,45.3
2018-09-04T17:01:48.221Z,45.2
2018-09-04T17:02:37.708Z,44.9
2018-09-04T17:03:27.844Z,44.6
2018-09-04T17:04:32.804Z,44.3
2018-09-04T17:05:09.023Z,43.8
2018-09-04T17:05:58.480Z,43.6
2018-09-04T17:06:47.538Z,43.3
2018-09-04T17:07:38.607Z,43
2018-09-04T17:08:29.028Z,42.8
2018-09-04T17:09:18.173Z,42.6
2018-09-04T17:10:07.770Z,42.4
2018-09-04T17:10:58.443Z,42.3
2018-09-04T17:11:48.370Z,42.2
2018-09-04T17:12:38.783Z,42.1
2018-09-04T17:13:28.351Z,42.1
2018-09-04T17:14:18.793Z,41.9
2018-09-04T17:15:08.393Z,41.9
2018-09-04T17:16:13.103Z,41.8
2018-09-04T17:16:48.288Z,41.8
2018-09-04T17:17:54.065Z,41.7
2018-09-04T17:18:28.349Z,41.6
2018-09-04T17:19:19.465Z,41.6
2018-09-04T17:20:08.857Z,41.6
2018-09-04T17:20:58.973Z,41.5
2018-09-04T17:21:50.064Z,41.4
2018-09-04T17:22:39.029Z,41.4
2018-09-04T17:23:30.292Z,41.4
2018-09-04T17:24:19.437Z,41.4
2018-09-04T17:25:09.905Z,41.4
2018-09-04T17:25:59.841Z,41.3
2018-09-04T17:27:03.965Z,41.3
2018-09-04T17:27:39.142Z,41.3
2018-09-04T17:28:30.724Z,41.3
2018-09-04T17:29:20.595Z,41.2
2018-09-04T17:30:09.874Z,41.2
2018-09-04T17:31:01.052Z,41.2
2018-09-04T17:32:05.156Z,41.1
2018-09-04T17:32:40.837Z,41.1
2018-09-04T17:33:29.179Z,41
2018-09-04T17:34:18.584Z,40.9
2018-09-04T17:35:09.275Z,40.8
2018-09-04T17:35:59.319Z,40.7
2018-09-04T17:36:49.374Z,40.6
2018-09-04T17:37:39.389Z,40.5
2018-09-04T17:38:29.462Z,40.3
2018-09-04T17:39:19.563Z,40.1
2018-09-04T17:40:24.271Z,39.8
2018-09-04T17:40:59.427Z,39.4
2018-09-04T17:41:50.043Z,39.1
2018-09-04T17:42:40.051Z,38.8
2018-09-04T17:43:29.581Z,38.5
2018-09-04T17:44:19.361Z,38.3
2018-09-04T17:45:10.006Z,38.1
2018-09-04T17:45:59.228Z,37.9
2018-09-04T17:46:49.853Z,37.7
2018-09-04T17:47:40.949Z,37.5
2018-09-04T17:48:30.068Z,37.3
2018-09-04T17:49:21.398Z,37.2
2018-09-04T17:50:10.155Z,37.1
2018-09-04T17:51:00.761Z,36.9
2018-09-04T17:51:50.523Z,36.9
2018-09-04T17:52:40.898Z,36.8
2018-09-04T17:53:30.402Z,36.6
2018-09-04T17:54:21.283Z,36.6
2018-09-04T17:55:10.828Z,36.5
2018-09-04T17:56:00.884Z,36.4
2018-09-04T17:56:50.652Z,36.4
2018-09-04T17:57:40.433Z,36.3
2018-09-04T17:58:31.061Z,36.3
2018-09-04T17:59:21.147Z,36.1
2018-09-04T18:00:11.187Z,36.1
2018-09-04T18:01:02.476Z,36.1
2018-09-04T18:01:51.027Z,36
2018-09-04T18:02:41.349Z,36
2018-09-04T18:03:31.463Z,35.9
2018-09-04T18:04:20.952Z,35.9
2018-09-04T18:05:11.329Z,35.9
2018-09-04T18:06:01.955Z,35.8
2018-09-04T18:06:51.154Z,35.8
2018-09-04T18:07:41.804Z,35.8
2018-09-04T18:08:31.894Z,35.7
2018-09-04T18:09:21.742Z,35.7
2018-09-04T18:10:12.039Z,35.7
2018-09-04T18:11:01.259Z,35.6
2018-09-04T18:11:52.222Z,35.6
2018-09-04T18:12:42.521Z,35.6
2018-09-04T18:13:32.609Z,35.6
2018-09-04T18:14:22.379Z,35.6
2018-09-04T18:15:11.952Z,35.5
2018-09-04T18:16:01.661Z,35.4